Serenade Of The Seas — C6FV8 — position and weather

sailwx.info

Track history (hours):
 
Tides and Currents Weather Stations Pressure Air Temp Water Temp Dewpoint Dewpoint Depression Visibility Wind Speed Wind Dir Waves Ship Positions

Serenade Of The Seas

Operator: Royal Caribbean Cruises Ltd

Last reported at 2018-May-26 09:30 UTC. Time now 2018-May-26 09:43 UTC.
Position N 55°36' E 015°05'.

Length 294 m; draft 8.6 m.

Type: Ship. MMSI: 311492000.

Date/timePositionNaut miles runAvg speedWind from/ knotsBaromVisibWave heightAir tempDewpointWater temp
2018-May-26 09:30N 55°36' E 015°05'1019.7
2018-May-26 09:00N 55°40' E 015°21'1019.6
2018-May-26 08:30N 55°45' E 015°36'1019.7
2018-May-26 08:00N 55°50' E 015°51'1019.8
2018-May-26 07:30N 55°56' E 016°06'1019.7
2018-May-26 07:00N 56°00' E 016°21'1019.7
2018-May-26 06:30N 56°06' E 016°36'2219.6
2018-May-26 05:23N 56°19' E 017°08'719.5
2018-May-26 05:00N 56°23' E 017°19'9819.6
2018-May-25 23:58N 57°29' E 019°33'1220.1
2018-May-25 23:22N 57°39' E 019°45'820.4
2018-May-25 23:00N 57°45' E 019°53'8720.1
2018-May-25 18:40N 58°58' E 021°24'320.1
2018-May-25 18:30N 59°01' E 021°27'1019.9
2018-May-25 18:00N 59°09' E 021°38'1019.9
2018-May-25 17:30N 59°15' E 021°53'1020.0
2018-May-25 17:00N 59°21' E 022°09'1019.7
2018-May-25 16:30N 59°27' E 022°25'1019.7
2018-May-25 16:00N 59°31' E 022°42'1019.8
2018-May-25 15:30N 59°34' E 023°00'1019.9
2018-May-25 15:00N 59°37' E 023°19'1020.1
2018-May-25 14:30N 59°40' E 023°38'1020.0
2018-May-25 14:00N 59°43' E 023°57'1020.1
2018-May-25 13:30N 59°46' E 024°16'1019.8
2018-May-25 13:00N 59°49' E 024°35'1019.9
2018-May-25 12:30N 59°53' E 024°52'815.5
2018-May-25 12:00N 60°01' E 024°56'713.2
2018-May-25 11:30N 60°08' E 024°54'2 3.0
2018-May-25 11:00N 60°09' E 024°55'0 0.0
2018-May-25 10:30N 60°09' E 024°55'0 0.0
2018-May-25 10:00N 60°09' E 024°55'0 0.0
2018-May-25 09:30N 60°09' E 024°55'0 0.0
2018-May-25 09:00N 60°09' E 024°55'0 0.0
2018-May-25 08:30N 60°09' E 024°55'0 0.0
2018-May-25 08:00N 60°09' E 024°55'0 0.0
2018-May-25 07:30N 60°09' E 024°55'0 0.0
2018-May-25 07:00N 60°09' E 024°55'0 0.0
2018-May-25 06:30N 60°09' E 024°55'0 0.0
2018-May-25 06:00N 60°09' E 024°55'0 0.0
2018-May-25 05:30N 60°09' E 024°55'0 0.0
2018-May-25 05:00N 60°09' E 024°55'0 0.0
2018-May-25 04:27N 60°09' E 024°55'0 0.0
2018-May-25 04:00N 60°09' E 024°55'0 0.5
2018-May-25 03:30N 60°09' E 024°54'3 6.2
2018-May-25 03:01N 60°06' E 024°54'714.3
2018-May-25 02:30N 59°59' E 024°59'917.9
2018-May-25 02:00N 59°56' E 025°15'1019.5
2018-May-25 01:30N 59°53' E 025°34'1019.5
2018-May-25 01:00N 59°55' E 025°53'1119.6
2018-May-25 00:27N 59°58' E 026°14'919.6
2018-May-25 00:00N 60°01' E 026°31'1019.6
2018-May-24 23:30N 60°00' E 026°50'1019.1
2018-May-24 23:00N 60°01' E 027°09'1019.9
2018-May-24 22:30N 60°06' E 027°26'1019.9
2018-May-24 22:00N 60°12' E 027°43'1019.5
2018-May-24 21:30N 60°10' E 028°03'1019.5
2018-May-24 21:00N 60°06' E 028°21'1019.2
2018-May-24 20:30N 60°03' E 028°39'1019.8
2018-May-24 20:00N 60°02' E 028°58'918.6
2018-May-24 19:30N 60°02' E 029°17'1411.7
2018-May-24 18:16N 59°59' E 029°45'2 9.2
2018-May-24 18:00N 59°57' E 029°49'510.4
2018-May-24 17:31N 59°56' E 029°59'5 9.5
2018-May-24 17:00N 59°57' E 030°08'2 3.1
2018-May-24 16:29N 59°57' E 030°11'0 0.0
2018-May-24 15:59N 59°57' E 030°11'0 0.0
2018-May-24 15:29N 59°57' E 030°11'0 0.0
2018-May-24 14:59N 59°57' E 030°11'0 0.0
2018-May-24 14:26N 59°57' E 030°11'0 0.0
2018-May-24 13:59N 59°57' E 030°11'0 0.0
2018-May-24 13:29N 59°57' E 030°11'0 0.0
2018-May-24 08:59N 59°57' E 030°11'0 0.0
2018-May-24 08:26N 59°57' E 030°11'0 0.0
2018-May-24 07:59N 59°57' E 030°11'0 0.0
2018-May-24 07:29N 59°57' E 030°11'0 0.0
2018-May-24 06:59N 59°57' E 030°11'0 0.0
2018-May-24 06:29N 59°57' E 030°11'0 0.0
2018-May-24 05:59N 59°57' E 030°11'0 0.0
2018-May-24 05:23N 59°57' E 030°11'0 0.0
2018-May-24 04:59N 59°57' E 030°11'0 0.0
2018-May-24 04:29N 59°57' E 030°11'0 0.0
2018-May-24 03:59N 59°57' E 030°11'0 0.0
2018-May-24 03:29N 59°57' E 030°11'0 0.2
2018-May-24 03:00N 59°57' E 030°11'2 3.6
2018-May-24 02:30N 59°57' E 030°07'5 9.2
2018-May-24 02:01N 59°56' E 029°59'510.6
2018-May-24 01:30N 59°58' E 029°49'510.0
2018-May-24 00:58N 59°60' E 029°39'511.4
2018-May-24 00:30N 60°01' E 029°29'713.7
2018-May-24 00:00N 60°02' E 029°15'815.6
2018-May-23 23:30N 60°02' E 028°60'815.9
2018-May-23 22:58N 60°02' E 028°43'816.2
2018-May-23 22:30N 60°03' E 028°28'816.3
2018-May-23 22:00N 60°07' E 028°14'1019.1
2018-May-23 21:30N 60°10' E 027°55'815.9
2018-May-23 21:00N 60°09' E 027°40'917.4
2018-May-23 20:30N 60°04' E 027°25'917.7
2018-May-23 20:00N 59°59' E 027°10'816.7
2018-May-23 19:30N 59°59' E 026°53'917.3
2018-May-23 18:57N 59°59' E 026°34'817.7
2018-May-23 18:30N 59°57' E 026°19'917.8
2018-May-23 18:00N 59°54' E 026°02'1217.6
2018-May-23 17:18N 59°52' E 025°38'517.7
2018-May-23 17:00N 59°51' E 025°28'917.7
2018-May-23 16:30N 59°49' E 025°11'917.6
2018-May-23 16:00N 59°46' E 024°54'917.7
2018-May-23 15:30N 59°39' E 024°43'714.1
2018-May-23 15:01N 59°32' E 024°44'510.0
2018-May-23 14:30N 59°27' E 024°46'0 0.4
2018-May-23 13:58N 59°27' E 024°46'0 0.0
2018-May-23 13:28N 59°27' E 024°46'0 0.0
2018-May-23 12:58N 59°27' E 024°46'0 0.0
2018-May-23 12:28N 59°27' E 024°46'0 0.0
2018-May-23 11:59N 59°27' E 024°46'0 0.0
2018-May-23 11:28N 59°27' E 024°46'0 0.0
2018-May-23 11:00N 59°27' E 024°46'0 0.0
2018-May-23 10:29N 59°27' E 024°46'0 0.0
2018-May-23 09:58N 59°27' E 024°46'0 0.0
2018-May-23 09:30N 59°27' E 024°46'0 0.0
2018-May-23 09:00N 59°27' E 024°46'0 0.0
2018-May-23 08:30N 59°27' E 024°46'0 0.0
2018-May-23 08:00N 59°27' E 024°46'0 0.0
2018-May-23 07:30N 59°27' E 024°46'0 0.0
2018-May-23 07:00N 59°27' E 024°46'0 0.0
2018-May-23 06:30N 59°27' E 024°46'0 0.7
2018-May-23 06:00N 59°27' E 024°46'4 9.0
2018-May-23 05:30N 59°30' E 024°39'713.9
2018-May-23 05:00N 59°30' E 024°25'918.0
2018-May-23 04:30N 59°30' E 024°08'918.2
2018-May-23 04:00N 59°30' E 023°49'918.4
2018-May-23 03:30N 59°30' E 023°31'1018.5
2018-May-23 03:00N 59°30' E 023°13'918.6
2018-May-23 02:30N 59°28' E 022°56'918.5
2018-May-23 02:00N 59°25' E 022°39'918.4
2018-May-23 01:30N 59°23' E 022°21'918.3
2018-May-23 01:00N 59°23' E 022°03'918.3
2018-May-23 00:30N 59°24' E 021°45'918.2
2018-May-23 00:00N 59°25' E 021°27'918.2
2018-May-22 23:30N 59°25' E 021°09'918.2
2018-May-22 23:00N 59°25' E 020°52'2417.6
2018-May-22 21:38N 59°29' E 020°05'1017.5
2018-May-22 21:03N 59°38' E 019°56'117.8
2018-May-22 20:59N 59°39' E 019°54'918.1
2018-May-22 20:30N 59°45' E 019°42'816.9
2018-May-22 20:00N 59°47' E 019°25'814.9
2018-May-22 19:30N 59°44' E 019°11'816.5
2018-May-22 19:00N 59°40' E 018°57'510.1
2018-May-22 18:30N 59°37' E 018°49'612.0
2018-May-22 18:00N 59°34' E 018°39'5 9.7
2018-May-22 17:30N 59°31' E 018°31'510.9
2018-May-22 17:00N 59°27' E 018°25'4 8.4
2018-May-22 16:30N 59°23' E 018°27'4 7.2
2018-May-22 16:00N 59°22' E 018°20'611.5
2018-May-22 15:31N 59°19' E 018°10'2 3.7
2018-May-22 14:58N 59°19' E 018°06'0 0.0
2018-May-22 14:28N 59°19' E 018°06'0 0.0
2018-May-22 13:58N 59°19' E 018°06'0 0.0
2018-May-22 13:28N 59°19' E 018°06'0 0.0
2018-May-22 12:58N 59°19' E 018°06'0 0.0
2018-May-22 12:28N 59°19' E 018°06'0 0.0
2018-May-22 11:58N 59°19' E 018°06'0 0.0
2018-May-22 11:28N 59°19' E 018°06'0 0.0
2018-May-22 10:58N 59°19' E 018°06'0 0.0
2018-May-22 10:28N 59°19' E 018°06'0 0.0
2018-May-22 09:58N 59°19' E 018°06'0 0.0
2018-May-22 09:28N 59°19' E 018°06'0 0.0
2018-May-22 08:58N 59°19' E 018°06'0 0.0
2018-May-22 08:28N 59°19' E 018°06'0 0.0
2018-May-22 07:58N 59°19' E 018°06'0 0.0
2018-May-22 07:28N 59°19' E 018°06'0 0.0
2018-May-22 06:58N 59°19' E 018°06'1 2.3
2018-May-22 06:30N 59°19' E 018°08'510.7
2018-May-22 06:00N 59°22' E 018°17'5 9.8
2018-May-22 05:31N 59°21' E 018°26'5 9.6
2018-May-22 05:01N 59°26' E 018°23'611.3
2018-May-22 04:30N 59°31' E 018°30'5 9.8
2018-May-22 04:00N 59°34' E 018°38'611.6
2018-May-22 03:30N 59°36' E 018°47'510.8
2018-May-22 03:00N 59°40' E 018°56'815.1
2018-May-22 02:31N 59°44' E 019°09'816.3
2018-May-22 02:00N 59°47' E 019°24'816.8
2018-May-22 01:30N 59°48' E 019°40'1619.3
2018-May-22 00:42N 59°38' E 020°04'419.2
2018-May-22 00:30N 59°35' E 020°09'1119.5
2018-May-21 23:56N 59°24' E 020°09'920.0
2018-May-21 23:30N 59°17' E 019°59'1020.2
2018-May-21 23:00N 59°10' E 019°47'2420.6
2018-May-21 21:50N 58°51' E 019°16'1120.7
2018-May-21 21:19N 58°43' E 019°03'620.7
2018-May-21 21:00N 58°38' E 018°55'1220.5
2018-May-21 20:27N 58°29' E 018°41'1220.5
2018-May-21 19:50N 58°19' E 018°28'11820.7
2018-May-21 14:08N 56°28' E 017°15'420.5
2018-May-21 13:57N 56°24' E 017°13'1120.6
2018-May-21 13:26N 56°14' E 017°06'920.2
2018-May-21 13:00N 56°08' E 016°56'1020.5
2018-May-21 12:30N 56°01' E 016°42'1020.6
2018-May-21 12:00N 55°55' E 016°27'1020.7
2018-May-21 11:30N 55°50' E 016°11'1020.7
2018-May-21 11:00N 55°44' E 015°55'1020.8
2018-May-21 10:31N 55°40' E 015°39'1020.9
2018-May-21 10:00N 55°36' E 015°22'1021.0
2018-May-21 09:30N 55°31' E 015°05'1020.8
2018-May-21 09:01N 55°27' E 014°48'1020.6
2018-May-21 08:30N 55°20' E 014°34'1020.5
2018-May-21 08:00N 55°12' E 014°23'1120.8
2018-May-21 07:30N 55°04' E 014°12'1220.6
2018-May-21 06:54N 54°59' E 013°52'821.3
2018-May-21 06:30N 54°56' E 013°39'1121.1
2018-May-21 06:00N 54°52' E 013°21'1220.8
2018-May-21 05:25N 54°48' E 013°01'819.9
2018-May-21 05:00N 54°46' E 012°47'1019.2
2018-May-21 04:30N 54°42' E 012°33'1019.4
2018-May-21 04:00N 54°37' E 012°19'1019.3
2018-May-21 03:30N 54°28' E 012°13'918.1
2018-May-21 03:00N 54°25' E 011°58'1019.5
2018-May-21 02:30N 54°26' E 011°41'1019.9
2018-May-21 02:00N 54°30' E 011°26'1019.5
2018-May-21 01:30N 54°35' E 011°11'1019.1
2018-May-21 01:00N 54°40' E 010°57'816.8
2018-May-21 00:30N 54°47' E 010°51'917.5
2018-May-21 00:00N 54°56' E 010°55'918.0
2018-May-20 23:30N 55°04' E 011°02'1018.5
2018-May-20 22:58N 55°14' E 011°06'1019.2
2018-May-20 22:28N 55°23' E 011°01'4617.2
2018-May-20 19:49N 56°08' E 011°11'816.9
2018-May-20 19:19N 56°13' E 011°24'619.8
2018-May-20 19:00N 56°16' E 011°34'1020.0
2018-May-20 18:29N 56°21' E 011°50'1320.1
2018-May-20 17:50N 56°16' E 012°11'619.7
2018-May-20 17:30N 56°12' E 012°20'1020.5
2018-May-20 17:00N 56°06' E 012°35'918.1
2018-May-20 16:30N 55°58' E 012°42'918.7
2018-May-20 16:00N 55°49' E 012°44'713.3
2018-May-20 15:30N 55°43' E 012°38'0 0.3
2018-May-20 14:59N 55°43' E 012°38'0 0.0
2018-May-20 14:29N 55°43' E 012°38'0 0.0
2018-May-20 13:59N 55°43' E 012°38'0 0.0
2018-May-20 13:29N 55°43' E 012°38'0 0.0
2018-May-20 12:59N 55°43' E 012°38'0 0.0
2018-May-20 12:29N 55°43' E 012°38'0 0.0
2018-May-20 11:59N 55°43' E 012°38'0 0.0
2018-May-20 11:29N 55°43' E 012°38'0 0.0
2018-May-20 10:59N 55°43' E 012°38'0 0.0
2018-May-20 10:29N 55°43' E 012°38'0 0.0
2018-May-20 09:59N 55°43' E 012°38'0 0.0
2018-May-20 09:29N 55°43' E 012°38'0 0.0
2018-May-20 08:59N 55°43' E 012°38'0 0.0
2018-May-20 08:29N 55°43' E 012°38'0 0.0
2018-May-20 07:59N 55°43' E 012°38'0 0.0
2018-May-20 07:29N 55°43' E 012°38'0 0.0
2018-May-20 06:59N 55°43' E 012°38'0 0.0
2018-May-20 06:29N 55°43' E 012°38'0 0.0
2018-May-20 05:59N 55°43' E 012°38'0 0.0
2018-May-20 05:29N 55°43' E 012°38'0 0.0
2018-May-20 04:59N 55°43' E 012°38'0 0.0
2018-May-20 04:29N 55°43' E 012°38'0 0.3
2018-May-20 04:00N 55°43' E 012°38'3 5.2
2018-May-20 03:30N 55°45' E 012°41'713.2
2018-May-20 03:00N 55°51' E 012°41'816.2
2018-May-20 02:30N 55°60' E 012°40'815.5
2018-May-20 02:00N 56°06' E 012°33'816.5
2018-May-20 01:30N 56°11' E 012°21'815.3
2018-May-20 01:00N 56°13' E 012°08'816.6
2018-May-20 00:30N 56°10' E 011°54'816.3
2018-May-20 00:00N 56°08' E 011°40'1016.6
2018-May-19 23:24N 56°10' E 011°23'715.2
2018-May-19 22:55N 56°07' E 011°11'4115.6
2018-May-19 20:16N 55°26' E 010°58'518.0
2018-May-19 20:00N 55°22' E 011°02'1017.7
2018-May-19 19:28N 55°13' E 011°06'817.6
2018-May-19 19:00N 55°05' E 011°03'816.7
2018-May-19 18:30N 54°57' E 010°58'816.5
2018-May-19 18:00N 54°49' E 010°52'816.1
2018-May-19 17:30N 54°41' E 010°55'917.7
2018-May-19 17:00N 54°37' E 011°08'918.3
2018-May-19 16:30N 54°33' E 011°23'917.8
2018-May-19 16:00N 54°29' E 011°36'917.7
2018-May-19 15:30N 54°26' E 011°51'1316.0
2018-May-19 14:41N 54°30' E 012°13'818.1
2018-May-19 14:16N 54°37' E 012°17'1017.6
2018-May-19 13:42N 54°43' E 012°30'417.6
2018-May-19 13:30N 54°45' E 012°35'917.5
2018-May-19 13:00N 54°50' E 012°48'917.7
2018-May-19 12:30N 54°53' E 013°02'918.0
2018-May-19 12:00N 54°55' E 013°17'917.8
2018-May-19 11:30N 54°59' E 013°32'917.8
2018-May-19 11:00N 55°02' E 013°46'1017.9
2018-May-19 10:25N 55°05' E 014°04'717.7
2018-May-19 10:00N 55°10' E 014°12'917.9
2018-May-19 09:30N 55°17' E 014°22'917.9
2018-May-19 09:00N 55°25' E 014°32'918.3
2018-May-19 08:30N 55°29' E 014°46'1020.7
2018-May-19 08:00N 55°34' E 015°02'1121.3
2018-May-19 07:30N 55°39' E 015°18'1121.3
2018-May-19 07:00N 55°45' E 015°34'1121.2
2018-May-19 06:30N 55°50' E 015°50'1121.2
2018-May-19 06:00N 55°55' E 016°07'1121.2
2018-May-19 05:30N 56°01' E 016°23'1121.2
2018-May-19 05:01N 56°07' E 016°39'1121.1
2018-May-19 04:30N 56°13' E 016°54'1121.1
2018-May-19 04:00N 56°19' E 017°10'21221.3
2018-May-18 18:04N 59°00' E 021°27'321.6
2018-May-18 17:57N 59°02' E 021°29'1321.5
2018-May-18 17:21N 59°12' E 021°47'721.9
2018-May-18 17:00N 59°17' E 021°58'1121.7
2018-May-18 16:31N 59°23' E 022°15'1121.6
2018-May-18 16:00N 59°29' E 022°32'1521.0
2018-May-18 15:16N 59°34' E 023°02'621.4
2018-May-18 15:01N 59°36' E 023°12'1121.3
2018-May-18 14:31N 59°39' E 023°32'1121.5
2018-May-18 14:01N 59°42' E 023°52'1120.9
2018-May-18 13:30N 59°45' E 024°13'1021.2
2018-May-18 13:00N 59°48' E 024°32'1021.0
2018-May-18 12:31N 59°53' E 024°51'815.6
2018-May-18 12:00N 60°00' E 024°56'713.9
2018-May-18 11:30N 60°07' E 024°54'2 3.4
2018-May-18 10:58N 60°09' E 024°55'0 0.0
2018-May-18 10:25N 60°09' E 024°55'0 0.0
2018-May-18 09:58N 60°09' E 024°55'0 0.0
2018-May-18 09:28N 60°09' E 024°55'0 0.0
2018-May-18 08:58N 60°09' E 024°55'0 0.0
2018-May-18 08:28N 60°09' E 024°55'0 0.0
2018-May-18 07:58N 60°09' E 024°55'0 0.0
2018-May-18 07:28N 60°09' E 024°55'0 0.0
2018-May-18 06:58N 60°09' E 024°55'0 0.0
2018-May-18 06:28N 60°09' E 024°55'0 0.0
2018-May-18 05:58N 60°09' E 024°55'0 0.0
2018-May-18 05:28N 60°09' E 024°55'0 0.0
2018-May-18 04:58N 60°09' E 024°55'0 0.0
2018-May-18 04:28N 60°09' E 024°55'0 0.0
2018-May-18 04:00N 60°09' E 024°55'1 2.2
2018-May-18 03:30N 60°08' E 024°54'3 6.5
2018-May-18 03:00N 60°05' E 024°53'612.9
2018-May-18 02:30N 59°59' E 024°59'918.4
2018-May-18 02:00N 59°56' E 025°16'1019.2
2018-May-18 01:30N 59°53' E 025°35'2022.0
2018-May-18 00:36N 59°58' E 026°13'322.6
2018-May-18 00:28N 59°59' E 026°18'613.6
2018-May-18 00:00N 60°01' E 026°31'1019.4
2018-May-17 23:29N 60°00' E 026°51'918.5
2018-May-17 23:00N 60°01' E 027°09'1019.4
2018-May-17 22:30N 60°06' E 027°25'1019.4
2018-May-17 22:00N 60°11' E 027°42'1019.2
2018-May-17 21:30N 60°10' E 028°01'1019.4
2018-May-17 21:00N 60°07' E 028°19'918.9
2018-May-17 20:30N 60°03' E 028°36'1019.9
2018-May-17 20:00N 60°02' E 028°56'919.1
2018-May-17 19:30N 60°02' E 029°15'612.5
2018-May-17 19:00N 60°01' E 029°28'811.0
2018-May-17 18:15N 59°59' E 029°44'2 7.9
2018-May-17 18:00N 59°58' E 029°47'5 9.9
2018-May-17 17:30N 59°56' E 029°56'5 9.4
2018-May-17 17:00N 59°56' E 030°05'3 5.7
2018-May-17 16:30N 59°57' E 030°11'0 0.1
2018-May-17 16:00N 59°57' E 030°11'0 0.0
2018-May-17 15:30N 59°57' E 030°11'0 0.0
2018-May-17 14:57N 59°57' E 030°11'0 0.0
2018-May-17 14:30N 59°57' E 030°11'0 0.0
2018-May-17 14:01N 59°57' E 030°11'0 0.0
2018-May-17 13:31N 59°57' E 030°11'0 0.0
2018-May-17 12:59N 59°57' E 030°11'0 0.0
2018-May-17 12:19N 59°57' E 030°11'0 0.0
2018-May-17 12:00N 59°57' E 030°11'0 0.0
2018-May-17 11:31N 59°57' E 030°11'0 0.0
2018-May-17 11:00N 59°57' E 030°11'0 0.0
2018-May-17 10:30N 59°57' E 030°11'0 0.0
2018-May-17 10:01N 59°57' E 030°11'0 0.0
2018-May-17 09:27N 59°57' E 030°11'0 0.0
2018-May-17 08:57N 59°57' E 030°11'0 0.0
2018-May-17 08:25N 59°57' E 030°11'0 0.0
2018-May-17 08:00N 59°57' E 030°11'0 0.0
2018-May-17 07:30N 59°57' E 030°11'0 0.0
2018-May-17 07:01N 59°57' E 030°11'0 0.0
2018-May-17 06:22N 59°57' E 030°11'0 0.0
2018-May-17 06:00N 59°57' E 030°11'0 0.0
2018-May-17 05:31N 59°57' E 030°11'0 0.0
2018-May-17 05:00N 59°57' E 030°11'0 0.0
2018-May-17 04:30N 59°57' E 030°11'0 0.0
2018-May-17 04:01N 59°57' E 030°11'0 0.1
2018-May-17 03:29N 59°57' E 030°11'3 5.6
2018-May-17 03:01N 59°57' E 030°06'5 9.3
2018-May-17 02:30N 59°56' E 029°57'510.5
2018-May-17 02:00N 59°58' E 029°47'5 9.4
2018-May-17 01:29N 60°00' E 029°38'814.7
2018-May-17 00:54N 60°02' E 029°22'410.4
2018-May-17 00:31N 60°02' E 029°13'816.0
2018-May-17 00:01N 60°02' E 028°57'815.9
2018-May-16 23:31N 60°02' E 028°42'816.0
2018-May-16 23:01N 60°03' E 028°26'816.0
2018-May-16 22:31N 60°08' E 028°12'816.3
2018-May-16 22:01N 60°10' E 027°57'815.2
2018-May-16 21:31N 60°09' E 027°41'816.8
2018-May-16 21:01N 60°05' E 027°27'917.3
2018-May-16 20:29N 60°00' E 027°12'915.6
2018-May-16 19:56N 59°58' E 026°55'716.8
2018-May-16 19:31N 59°60' E 026°41'916.9
2018-May-16 18:59N 59°57' E 026°23'816.9
2018-May-16 18:31N 59°55' E 026°08'917.0
2018-May-16 18:01N 59°53' E 025°52'816.9
2018-May-16 17:31N 59°51' E 025°35'816.7
2018-May-16 17:01N 59°50' E 025°19'816.4
2018-May-16 16:30N 59°48' E 025°03'815.8
2018-May-16 16:01N 59°44' E 024°50'816.6
2018-May-16 15:30N 59°37' E 024°41'713.4
2018-May-16 15:00N 59°30' E 024°45'3 6.5
2018-May-16 14:30N 59°27' E 024°46'0 0.0
2018-May-16 14:00N 59°27' E 024°46'0 0.0
2018-May-16 13:30N 59°27' E 024°46'0 0.0
2018-May-16 13:00N 59°27' E 024°46'0 0.0
2018-May-16 12:27N 59°27' E 024°46'0 0.0
2018-May-16 12:00N 59°27' E 024°46'0 0.0
2018-May-16 11:30N 59°27' E 024°46'0 0.0
2018-May-16 11:00N 59°27' E 024°46'0 0.0
2018-May-16 10:30N 59°27' E 024°46'0 0.0
2018-May-16 09:57N 59°27' E 024°46'  
Track history (hours):
 
Tides and Currents Weather Stations Pressure Air Temp Water Temp Dewpoint Dewpoint Depression Visibility Wind Speed Wind Dir Waves Ship Positions

Serenade Of The Seas

Operator: Royal Caribbean Cruises Ltd

Last reported at 2018-May-26 09:30 UTC. Time now 2018-May-26 09:43 UTC.
Position N 55°36' E 015°05'.

Length 294 m; draft 8.6 m.

Type: Ship. MMSI: 311492000.

Date/timePositionNaut miles runAvg speedWind from/ knotsBaromVisibWave heightAir tempDewpointWater temp
2018-May-26 09:30N 55°36' E 015°05'1019.7
2018-May-26 09:00N 55°40' E 015°21'1019.6
2018-May-26 08:30N 55°45' E 015°36'1019.7
2018-May-26 08:00N 55°50' E 015°51'1019.8
2018-May-26 07:30N 55°56' E 016°06'1019.7
2018-May-26 07:00N 56°00' E 016°21'1019.7
2018-May-26 06:30N 56°06' E 016°36'2219.6
2018-May-26 05:23N 56°19' E 017°08'719.5
2018-May-26 05:00N 56°23' E 017°19'9819.6
2018-May-25 23:58N 57°29' E 019°33'1220.1
2018-May-25 23:22N 57°39' E 019°45'820.4
2018-May-25 23:00N 57°45' E 019°53'8720.1
2018-May-25 18:40N 58°58' E 021°24'320.1
2018-May-25 18:30N 59°01' E 021°27'1019.9
2018-May-25 18:00N 59°09' E 021°38'1019.9
2018-May-25 17:30N 59°15' E 021°53'1020.0
2018-May-25 17:00N 59°21' E 022°09'1019.7
2018-May-25 16:30N 59°27' E 022°25'1019.7
2018-May-25 16:00N 59°31' E 022°42'1019.8
2018-May-25 15:30N 59°34' E 023°00'1019.9
2018-May-25 15:00N 59°37' E 023°19'1020.1
2018-May-25 14:30N 59°40' E 023°38'1020.0
2018-May-25 14:00N 59°43' E 023°57'1020.1
2018-May-25 13:30N 59°46' E 024°16'1019.8
2018-May-25 13:00N 59°49' E 024°35'1019.9
2018-May-25 12:30N 59°53' E 024°52'815.5
2018-May-25 12:00N 60°01' E 024°56'713.2
2018-May-25 11:30N 60°08' E 024°54'2 3.0
2018-May-25 11:00N 60°09' E 024°55'0 0.0
2018-May-25 10:30N 60°09' E 024°55'0 0.0
2018-May-25 10:00N 60°09' E 024°55'0 0.0
2018-May-25 09:30N 60°09' E 024°55'0 0.0
2018-May-25 09:00N 60°09' E 024°55'0 0.0
2018-May-25 08:30N 60°09' E 024°55'0 0.0
2018-May-25 08:00N 60°09' E 024°55'0 0.0
2018-May-25 07:30N 60°09' E 024°55'0 0.0
2018-May-25 07:00N 60°09' E 024°55'0 0.0
2018-May-25 06:30N 60°09' E 024°55'0 0.0
2018-May-25 06:00N 60°09' E 024°55'0 0.0
2018-May-25 05:30N 60°09' E 024°55'0 0.0
2018-May-25 05:00N 60°09' E 024°55'0 0.0
2018-May-25 04:27N 60°09' E 024°55'0 0.0
2018-May-25 04:00N 60°09' E 024°55'0 0.5
2018-May-25 03:30N 60°09' E 024°54'3 6.2
2018-May-25 03:01N 60°06' E 024°54'714.3
2018-May-25 02:30N 59°59' E 024°59'917.9
2018-May-25 02:00N 59°56' E 025°15'1019.5
2018-May-25 01:30N 59°53' E 025°34'1019.5
2018-May-25 01:00N 59°55' E 025°53'1119.6
2018-May-25 00:27N 59°58' E 026°14'919.6
2018-May-25 00:00N 60°01' E 026°31'1019.6
2018-May-24 23:30N 60°00' E 026°50'1019.1
2018-May-24 23:00N 60°01' E 027°09'1019.9
2018-May-24 22:30N 60°06' E 027°26'1019.9
2018-May-24 22:00N 60°12' E 027°43'1019.5
2018-May-24 21:30N 60°10' E 028°03'1019.5
2018-May-24 21:00N 60°06' E 028°21'1019.2
2018-May-24 20:30N 60°03' E 028°39'1019.8
2018-May-24 20:00N 60°02' E 028°58'918.6
2018-May-24 19:30N 60°02' E 029°17'1411.7
2018-May-24 18:16N 59°59' E 029°45'2 9.2
2018-May-24 18:00N 59°57' E 029°49'510.4
2018-May-24 17:31N 59°56' E 029°59'5 9.5
2018-May-24 17:00N 59°57' E 030°08'2 3.1
2018-May-24 16:29N 59°57' E 030°11'0 0.0
2018-May-24 15:59N 59°57' E 030°11'0 0.0
2018-May-24 15:29N 59°57' E 030°11'0 0.0
2018-May-24 14:59N 59°57' E 030°11'0 0.0
2018-May-24 14:26N 59°57' E 030°11'0 0.0
2018-May-24 13:59N 59°57' E 030°11'0 0.0
2018-May-24 13:29N 59°57' E 030°11'0 0.0
2018-May-24 08:59N 59°57' E 030°11'0 0.0
2018-May-24 08:26N 59°57' E 030°11'0 0.0
2018-May-24 07:59N 59°57' E 030°11'0 0.0
2018-May-24 07:29N 59°57' E 030°11'0 0.0
2018-May-24 06:59N 59°57' E 030°11'0 0.0
2018-May-24 06:29N 59°57' E 030°11'0 0.0
2018-May-24 05:59N 59°57' E 030°11'0 0.0
2018-May-24 05:23N 59°57' E 030°11'0 0.0
2018-May-24 04:59N 59°57' E 030°11'0 0.0
2018-May-24 04:29N 59°57' E 030°11'0 0.0
2018-May-24 03:59N 59°57' E 030°11'0 0.0
2018-May-24 03:29N 59°57' E 030°11'0 0.2
2018-May-24 03:00N 59°57' E 030°11'2 3.6
2018-May-24 02:30N 59°57' E 030°07'5 9.2
2018-May-24 02:01N 59°56' E 029°59'510.6
2018-May-24 01:30N 59°58' E 029°49'510.0
2018-May-24 00:58N 59°60' E 029°39'511.4
2018-May-24 00:30N 60°01' E 029°29'713.7
2018-May-24 00:00N 60°02' E 029°15'815.6
2018-May-23 23:30N 60°02' E 028°60'815.9
2018-May-23 22:58N 60°02' E 028°43'816.2
2018-May-23 22:30N 60°03' E 028°28'816.3
2018-May-23 22:00N 60°07' E 028°14'1019.1
2018-May-23 21:30N 60°10' E 027°55'815.9
2018-May-23 21:00N 60°09' E 027°40'917.4
2018-May-23 20:30N 60°04' E 027°25'917.7
2018-May-23 20:00N 59°59' E 027°10'816.7
2018-May-23 19:30N 59°59' E 026°53'917.3
2018-May-23 18:57N 59°59' E 026°34'817.7
2018-May-23 18:30N 59°57' E 026°19'917.8
2018-May-23 18:00N 59°54' E 026°02'1217.6
2018-May-23 17:18N 59°52' E 025°38'517.7
2018-May-23 17:00N 59°51' E 025°28'917.7
2018-May-23 16:30N 59°49' E 025°11'917.6
2018-May-23 16:00N 59°46' E 024°54'917.7
2018-May-23 15:30N 59°39' E 024°43'714.1
2018-May-23 15:01N 59°32' E 024°44'510.0
2018-May-23 14:30N 59°27' E 024°46'0 0.4
2018-May-23 13:58N 59°27' E 024°46'0 0.0
2018-May-23 13:28N 59°27' E 024°46'0 0.0
2018-May-23 12:58N 59°27' E 024°46'0 0.0
2018-May-23 12:28N 59°27' E 024°46'0 0.0
2018-May-23 11:59N 59°27' E 024°46'0 0.0
2018-May-23 11:28N 59°27' E 024°46'0 0.0
2018-May-23 11:00N 59°27' E 024°46'0 0.0
2018-May-23 10:29N 59°27' E 024°46'0 0.0
2018-May-23 09:58N 59°27' E 024°46'0 0.0
2018-May-23 09:30N 59°27' E 024°46'0 0.0
2018-May-23 09:00N 59°27' E 024°46'0 0.0
2018-May-23 08:30N 59°27' E 024°46'0 0.0
2018-May-23 08:00N 59°27' E 024°46'0 0.0
2018-May-23 07:30N 59°27' E 024°46'0 0.0
2018-May-23 07:00N 59°27' E 024°46'0 0.0
2018-May-23 06:30N 59°27' E 024°46'0 0.7
2018-May-23 06:00N 59°27' E 024°46'4 9.0
2018-May-23 05:30N 59°30' E 024°39'713.9
2018-May-23 05:00N 59°30' E 024°25'918.0
2018-May-23 04:30N 59°30' E 024°08'918.2
2018-May-23 04:00N 59°30' E 023°49'918.4
2018-May-23 03:30N 59°30' E 023°31'1018.5
2018-May-23 03:00N 59°30' E 023°13'918.6
2018-May-23 02:30N 59°28' E 022°56'918.5
2018-May-23 02:00N 59°25' E 022°39'918.4
2018-May-23 01:30N 59°23' E 022°21'918.3
2018-May-23 01:00N 59°23' E 022°03'918.3
2018-May-23 00:30N 59°24' E 021°45'918.2
2018-May-23 00:00N 59°25' E 021°27'918.2
2018-May-22 23:30N 59°25' E 021°09'918.2
2018-May-22 23:00N 59°25' E 020°52'2417.6
2018-May-22 21:38N 59°29' E 020°05'1017.5
2018-May-22 21:03N 59°38' E 019°56'117.8
2018-May-22 20:59N 59°39' E 019°54'918.1
2018-May-22 20:30N 59°45' E 019°42'816.9
2018-May-22 20:00N 59°47' E 019°25'814.9
2018-May-22 19:30N 59°44' E 019°11'816.5
2018-May-22 19:00N 59°40' E 018°57'510.1
2018-May-22 18:30N 59°37' E 018°49'612.0
2018-May-22 18:00N 59°34' E 018°39'5 9.7
2018-May-22 17:30N 59°31' E 018°31'510.9
2018-May-22 17:00N 59°27' E 018°25'4 8.4
2018-May-22 16:30N 59°23' E 018°27'4 7.2
2018-May-22 16:00N 59°22' E 018°20'611.5
2018-May-22 15:31N 59°19' E 018°10'2 3.7
2018-May-22 14:58N 59°19' E 018°06'0 0.0
2018-May-22 14:28N 59°19' E 018°06'0 0.0
2018-May-22 13:58N 59°19' E 018°06'0 0.0
2018-May-22 13:28N 59°19' E 018°06'0 0.0
2018-May-22 12:58N 59°19' E 018°06'0 0.0
2018-May-22 12:28N 59°19' E 018°06'0 0.0
2018-May-22 11:58N 59°19' E 018°06'0 0.0
2018-May-22 11:28N 59°19' E 018°06'0 0.0
2018-May-22 10:58N 59°19' E 018°06'0 0.0
2018-May-22 10:28N 59°19' E 018°06'0 0.0
2018-May-22 09:58N 59°19' E 018°06'0 0.0
2018-May-22 09:28N 59°19' E 018°06'0 0.0
2018-May-22 08:58N 59°19' E 018°06'0 0.0
2018-May-22 08:28N 59°19' E 018°06'0 0.0
2018-May-22 07:58N 59°19' E 018°06'0 0.0
2018-May-22 07:28N 59°19' E 018°06'0 0.0
2018-May-22 06:58N 59°19' E 018°06'1 2.3
2018-May-22 06:30N 59°19' E 018°08'510.7
2018-May-22 06:00N 59°22' E 018°17'5 9.8
2018-May-22 05:31N 59°21' E 018°26'5 9.6
2018-May-22 05:01N 59°26' E 018°23'611.3
2018-May-22 04:30N 59°31' E 018°30'5 9.8
2018-May-22 04:00N 59°34' E 018°38'611.6
2018-May-22 03:30N 59°36' E 018°47'510.8
2018-May-22 03:00N 59°40' E 018°56'815.1
2018-May-22 02:31N 59°44' E 019°09'816.3
2018-May-22 02:00N 59°47' E 019°24'816.8
2018-May-22 01:30N 59°48' E 019°40'1619.3
2018-May-22 00:42N 59°38' E 020°04'419.2
2018-May-22 00:30N 59°35' E 020°09'1119.5
2018-May-21 23:56N 59°24' E 020°09'920.0
2018-May-21 23:30N 59°17' E 019°59'1020.2
2018-May-21 23:00N 59°10' E 019°47'2420.6
2018-May-21 21:50N 58°51' E 019°16'1120.7
2018-May-21 21:19N 58°43' E 019°03'620.7
2018-May-21 21:00N 58°38' E 018°55'1220.5
2018-May-21 20:27N 58°29' E 018°41'1220.5
2018-May-21 19:50N 58°19' E 018°28'11820.7
2018-May-21 14:08N 56°28' E 017°15'420.5
2018-May-21 13:57N 56°24' E 017°13'1120.6
2018-May-21 13:26N 56°14' E 017°06'920.2
2018-May-21 13:00N 56°08' E 016°56'1020.5
2018-May-21 12:30N 56°01' E 016°42'1020.6
2018-May-21 12:00N 55°55' E 016°27'1020.7
2018-May-21 11:30N 55°50' E 016°11'1020.7
2018-May-21 11:00N 55°44' E 015°55'1020.8
2018-May-21 10:31N 55°40' E 015°39'1020.9
2018-May-21 10:00N 55°36' E 015°22'1021.0
2018-May-21 09:30N 55°31' E 015°05'1020.8
2018-May-21 09:01N 55°27' E 014°48'1020.6
2018-May-21 08:30N 55°20' E 014°34'1020.5
2018-May-21 08:00N 55°12' E 014°23'1120.8
2018-May-21 07:30N 55°04' E 014°12'1220.6
2018-May-21 06:54N 54°59' E 013°52'821.3
2018-May-21 06:30N 54°56' E 013°39'1121.1
2018-May-21 06:00N 54°52' E 013°21'1220.8
2018-May-21 05:25N 54°48' E 013°01'819.9
2018-May-21 05:00N 54°46' E 012°47'1019.2
2018-May-21 04:30N 54°42' E 012°33'1019.4
2018-May-21 04:00N 54°37' E 012°19'1019.3
2018-May-21 03:30N 54°28' E 012°13'918.1
2018-May-21 03:00N 54°25' E 011°58'1019.5
2018-May-21 02:30N 54°26' E 011°41'1019.9
2018-May-21 02:00N 54°30' E 011°26'1019.5
2018-May-21 01:30N 54°35' E 011°11'1019.1
2018-May-21 01:00N 54°40' E 010°57'816.8
2018-May-21 00:30N 54°47' E 010°51'917.5
2018-May-21 00:00N 54°56' E 010°55'918.0
2018-May-20 23:30N 55°04' E 011°02'1018.5
2018-May-20 22:58N 55°14' E 011°06'1019.2
2018-May-20 22:28N 55°23' E 011°01'4617.2
2018-May-20 19:49N 56°08' E 011°11'816.9
2018-May-20 19:19N 56°13' E 011°24'619.8
2018-May-20 19:00N 56°16' E 011°34'1020.0
2018-May-20 18:29N 56°21' E 011°50'1320.1
2018-May-20 17:50N 56°16' E 012°11'619.7
2018-May-20 17:30N 56°12' E 012°20'1020.5
2018-May-20 17:00N 56°06' E 012°35'918.1
2018-May-20 16:30N 55°58' E 012°42'918.7
2018-May-20 16:00N 55°49' E 012°44'713.3
2018-May-20 15:30N 55°43' E 012°38'0 0.3
2018-May-20 14:59N 55°43' E 012°38'0 0.0
2018-May-20 14:29N 55°43' E 012°38'0 0.0
2018-May-20 13:59N 55°43' E 012°38'0 0.0
2018-May-20 13:29N 55°43' E 012°38'0 0.0
2018-May-20 12:59N 55°43' E 012°38'0 0.0
2018-May-20 12:29N 55°43' E 012°38'0 0.0
2018-May-20 11:59N 55°43' E 012°38'0 0.0
2018-May-20 11:29N 55°43' E 012°38'0 0.0
2018-May-20 10:59N 55°43' E 012°38'0 0.0
2018-May-20 10:29N 55°43' E 012°38'0 0.0
2018-May-20 09:59N 55°43' E 012°38'0 0.0
2018-May-20 09:29N 55°43' E 012°38'0 0.0
2018-May-20 08:59N 55°43' E 012°38'0 0.0
2018-May-20 08:29N 55°43' E 012°38'0 0.0
2018-May-20 07:59N 55°43' E 012°38'0 0.0
2018-May-20 07:29N 55°43' E 012°38'0 0.0
2018-May-20 06:59N 55°43' E 012°38'0 0.0
2018-May-20 06:29N 55°43' E 012°38'0 0.0
2018-May-20 05:59N 55°43' E 012°38'0 0.0
2018-May-20 05:29N 55°43' E 012°38'0 0.0
2018-May-20 04:59N 55°43' E 012°38'0 0.0
2018-May-20 04:29N 55°43' E 012°38'0 0.3
2018-May-20 04:00N 55°43' E 012°38'3 5.2
2018-May-20 03:30N 55°45' E 012°41'713.2
2018-May-20 03:00N 55°51' E 012°41'816.2
2018-May-20 02:30N 55°60' E 012°40'815.5
2018-May-20 02:00N 56°06' E 012°33'816.5
2018-May-20 01:30N 56°11' E 012°21'815.3
2018-May-20 01:00N 56°13' E 012°08'816.6
2018-May-20 00:30N 56°10' E 011°54'816.3
2018-May-20 00:00N 56°08' E 011°40'1016.6
2018-May-19 23:24N 56°10' E 011°23'715.2
2018-May-19 22:55N 56°07' E 011°11'4115.6
2018-May-19 20:16N 55°26' E 010°58'518.0
2018-May-19 20:00N 55°22' E 011°02'1017.7
2018-May-19 19:28N 55°13' E 011°06'817.6
2018-May-19 19:00N 55°05' E 011°03'816.7
2018-May-19 18:30N 54°57' E 010°58'816.5
2018-May-19 18:00N 54°49' E 010°52'816.1
2018-May-19 17:30N 54°41' E 010°55'917.7
2018-May-19 17:00N 54°37' E 011°08'918.3
2018-May-19 16:30N 54°33' E 011°23'917.8
2018-May-19 16:00N 54°29' E 011°36'917.7
2018-May-19 15:30N 54°26' E 011°51'1316.0
2018-May-19 14:41N 54°30' E 012°13'818.1
2018-May-19 14:16N 54°37' E 012°17'1017.6
2018-May-19 13:42N 54°43' E 012°30'417.6
2018-May-19 13:30N 54°45' E 012°35'917.5
2018-May-19 13:00N 54°50' E 012°48'917.7
2018-May-19 12:30N 54°53' E 013°02'918.0
2018-May-19 12:00N 54°55' E 013°17'917.8
2018-May-19 11:30N 54°59' E 013°32'917.8
2018-May-19 11:00N 55°02' E 013°46'1017.9
2018-May-19 10:25N 55°05' E 014°04'717.7
2018-May-19 10:00N 55°10' E 014°12'917.9
2018-May-19 09:30N 55°17' E 014°22'917.9
2018-May-19 09:00N 55°25' E 014°32'918.3
2018-May-19 08:30N 55°29' E 014°46'1020.7
2018-May-19 08:00N 55°34' E 015°02'1121.3
2018-May-19 07:30N 55°39' E 015°18'1121.3
2018-May-19 07:00N 55°45' E 015°34'1121.2
2018-May-19 06:30N 55°50' E 015°50'1121.2
2018-May-19 06:00N 55°55' E 016°07'1121.2
2018-May-19 05:30N 56°01' E 016°23'1121.2
2018-May-19 05:01N 56°07' E 016°39'1121.1
2018-May-19 04:30N 56°13' E 016°54'1121.1
2018-May-19 04:00N 56°19' E 017°10'21221.3
2018-May-18 18:04N 59°00' E 021°27'321.6
2018-May-18 17:57N 59°02' E 021°29'1321.5
2018-May-18 17:21N 59°12' E 021°47'721.9
2018-May-18 17:00N 59°17' E 021°58'1121.7
2018-May-18 16:31N 59°23' E 022°15'1121.6
2018-May-18 16:00N 59°29' E 022°32'1521.0
2018-May-18 15:16N 59°34' E 023°02'621.4
2018-May-18 15:01N 59°36' E 023°12'1121.3
2018-May-18 14:31N 59°39' E 023°32'1121.5
2018-May-18 14:01N 59°42' E 023°52'1120.9
2018-May-18 13:30N 59°45' E 024°13'1021.2
2018-May-18 13:00N 59°48' E 024°32'1021.0
2018-May-18 12:31N 59°53' E 024°51'815.6
2018-May-18 12:00N 60°00' E 024°56'713.9
2018-May-18 11:30N 60°07' E 024°54'2 3.4
2018-May-18 10:58N 60°09' E 024°55'0 0.0
2018-May-18 10:25N 60°09' E 024°55'0 0.0
2018-May-18 09:58N 60°09' E 024°55'0 0.0
2018-May-18 09:28N 60°09' E 024°55'0 0.0
2018-May-18 08:58N 60°09' E 024°55'0 0.0
2018-May-18 08:28N 60°09' E 024°55'0 0.0
2018-May-18 07:58N 60°09' E 024°55'0 0.0
2018-May-18 07:28N 60°09' E 024°55'0 0.0
2018-May-18 06:58N 60°09' E 024°55'0 0.0
2018-May-18 06:28N 60°09' E 024°55'0 0.0
2018-May-18 05:58N 60°09' E 024°55'0 0.0
2018-May-18 05:28N 60°09' E 024°55'0 0.0
2018-May-18 04:58N 60°09' E 024°55'0 0.0
2018-May-18 04:28N 60°09' E 024°55'0 0.0
2018-May-18 04:00N 60°09' E 024°55'1 2.2
2018-May-18 03:30N 60°08' E 024°54'3 6.5
2018-May-18 03:00N 60°05' E 024°53'612.9
2018-May-18 02:30N 59°59' E 024°59'918.4
2018-May-18 02:00N 59°56' E 025°16'1019.2
2018-May-18 01:30N 59°53' E 025°35'2022.0
2018-May-18 00:36N 59°58' E 026°13'322.6
2018-May-18 00:28N 59°59' E 026°18'613.6
2018-May-18 00:00N 60°01' E 026°31'1019.4
2018-May-17 23:29N 60°00' E 026°51'918.5
2018-May-17 23:00N 60°01' E 027°09'1019.4
2018-May-17 22:30N 60°06' E 027°25'1019.4
2018-May-17 22:00N 60°11' E 027°42'1019.2
2018-May-17 21:30N 60°10' E 028°01'1019.4
2018-May-17 21:00N 60°07' E 028°19'918.9
2018-May-17 20:30N 60°03' E 028°36'1019.9
2018-May-17 20:00N 60°02' E 028°56'919.1
2018-May-17 19:30N 60°02' E 029°15'612.5
2018-May-17 19:00N 60°01' E 029°28'811.0
2018-May-17 18:15N 59°59' E 029°44'2 7.9
2018-May-17 18:00N 59°58' E 029°47'5 9.9
2018-May-17 17:30N 59°56' E 029°56'5 9.4
2018-May-17 17:00N 59°56' E 030°05'3 5.7
2018-May-17 16:30N 59°57' E 030°11'0 0.1
2018-May-17 16:00N 59°57' E 030°11'0 0.0
2018-May-17 15:30N 59°57' E 030°11'0 0.0
2018-May-17 14:57N 59°57' E 030°11'0 0.0
2018-May-17 14:30N 59°57' E 030°11'0 0.0
2018-May-17 14:01N 59°57' E 030°11'0 0.0
2018-May-17 13:31N 59°57' E 030°11'0 0.0
2018-May-17 12:59N 59°57' E 030°11'0 0.0
2018-May-17 12:19N 59°57' E 030°11'0 0.0
2018-May-17 12:00N 59°57' E 030°11'0 0.0
2018-May-17 11:31N 59°57' E 030°11'0 0.0
2018-May-17 11:00N 59°57' E 030°11'0 0.0
2018-May-17 10:30N 59°57' E 030°11'0 0.0
2018-May-17 10:01N 59°57' E 030°11'0 0.0
2018-May-17 09:27N 59°57' E 030°11'0 0.0
2018-May-17 08:57N 59°57' E 030°11'0 0.0
2018-May-17 08:25N 59°57' E 030°11'0 0.0
2018-May-17 08:00N 59°57' E 030°11'0 0.0
2018-May-17 07:30N 59°57' E 030°11'0 0.0
2018-May-17 07:01N 59°57' E 030°11'0 0.0
2018-May-17 06:22N 59°57' E 030°11'0 0.0
2018-May-17 06:00N 59°57' E 030°11'0 0.0
2018-May-17 05:31N 59°57' E 030°11'0 0.0
2018-May-17 05:00N 59°57' E 030°11'0 0.0
2018-May-17 04:30N 59°57' E 030°11'0 0.0
2018-May-17 04:01N 59°57' E 030°11'0 0.1
2018-May-17 03:29N 59°57' E 030°11'3 5.6
2018-May-17 03:01N 59°57' E 030°06'5 9.3
2018-May-17 02:30N 59°56' E 029°57'510.5
2018-May-17 02:00N 59°58' E 029°47'5 9.4
2018-May-17 01:29N 60°00' E 029°38'814.7
2018-May-17 00:54N 60°02' E 029°22'410.4
2018-May-17 00:31N 60°02' E 029°13'816.0
2018-May-17 00:01N 60°02' E 028°57'815.9
2018-May-16 23:31N 60°02' E 028°42'816.0
2018-May-16 23:01N 60°03' E 028°26'816.0
2018-May-16 22:31N 60°08' E 028°12'816.3
2018-May-16 22:01N 60°10' E 027°57'815.2
2018-May-16 21:31N 60°09' E 027°41'816.8
2018-May-16 21:01N 60°05' E 027°27'917.3
2018-May-16 20:29N 60°00' E 027°12'915.6
2018-May-16 19:56N 59°58' E 026°55'716.8
2018-May-16 19:31N 59°60' E 026°41'916.9
2018-May-16 18:59N 59°57' E 026°23'816.9
2018-May-16 18:31N 59°55' E 026°08'917.0
2018-May-16 18:01N 59°53' E 025°52'816.9
2018-May-16 17:31N 59°51' E 025°35'816.7
2018-May-16 17:01N 59°50' E 025°19'816.4
2018-May-16 16:30N 59°48' E 025°03'815.8
2018-May-16 16:01N 59°44' E 024°50'816.6
2018-May-16 15:30N 59°37' E 024°41'713.4
2018-May-16 15:00N 59°30' E 024°45'3 6.5
2018-May-16 14:30N 59°27' E 024°46'0 0.0
2018-May-16 14:00N 59°27' E 024°46'0 0.0
2018-May-16 13:30N 59°27' E 024°46'0 0.0
2018-May-16 13:00N 59°27' E 024°46'0 0.0
2018-May-16 12:27N 59°27' E 024°46'0 0.0
2018-May-16 12:00N 59°27' E 024°46'0 0.0
2018-May-16 11:30N 59°27' E 024°46'0 0.0
2018-May-16 11:00N 59°27' E 024°46'0 0.0
2018-May-16 10:30N 59°27' E 024°46'0 0.0
2018-May-16 09:57N 59°27' E 024°46'  

Dump ship's entire track history